Tiempo atmosférico en la estación meteorológica de Jaraicejo, Cáceres (510 m.)



Fecha
DESCASC
Temp. máxima en grados centígrados (hora)
DESCASC
Temp. mínima en grados centígrados (hora)
DESCASC
Temp. media en grados centígrados
DESCASC
Racha de viento máxima en m/sg (hora)
DESCASC
Velocidad máxima media en intervalos de 10 minutos(hora)
DESCASC
Precipitaciones diarias en mm
DESCASC
Precipitaciones de 00:00 a 06:00 en mm
DESCASC
Precipitaciones de 06:00 a 12:00 en mm
DESCASC
Precipitaciones de 12:00 a 18:00 en mm
DESCASC
Precipitaciones de 18:00 a 24:00 en mm
DESCASC
19-09-2019 29.4 (16:20) 17.2 (08:40) 23.3 6.67 (15:20) 3.89 (15:20) 0 0 0 0 0
18-09-2019 28.8 (17:10) 16.1 (06:00) 22.4 5.83 (00:20) 4.72 (00:20) 0 0 0 0 0
17-09-2019 27.6 (12:20) 16.3 (00:00) 21.9 15 (22:10) 10.28 (21:50) 17.2 0 0 12.2 5
16-09-2019 28.1 (18:00) 18.3 (00:00) 23.2 8.06 (05:30) 6.11 (05:30) 0 0 0 0 0
15-09-2019 25.9 (16:10) 15.5 (00:00) 20.7 10.28 (00:30) 7.22 (00:30) 9.2 9.2 0 0 0
14-09-2019 23.2 (13:40) 17.2 (00:00) 20.2 15 (08:30) 10.28 (11:40) 0 0 0 0 0
13-09-2019 24.5 (13:40) 17.7 (00:00) 21.1 17.78 (15:50) 12.5 (16:10) 0 0 0 0 0
12-09-2019 29.1 (16:10) 18.6 (00:00) 23.9 16.39 (10:20) 11.67 (10:20) 0 0 0 0 0
11-09-2019 27.5 (17:10) 13.1 (00:00) 20.3 10 (21:20) 6.67 (22:50) 0 0 0 0 0
10-09-2019 25.2 (16:20) 14.2 (05:20) 19.7 13.61 (07:50) 7.78 (08:10) 0 0 0 0 0
09-09-2019 31.5 (16:20) 17.1 (08:00) 24.3 18.61 (14:40) 6.67 (15:40) 0 0 0 0 0
08-09-2019 31.5 (17:30) 18.2 (00:00) 24.9 10.56 (07:30) 8.33 (07:30) 0 0 0 0 0
07-09-2019 30.7 (16:10) 16.9 (00:00) 23.8 15.28 (10:30) 11.94 (10:20) 0 0 0 0 0
06-09-2019 29.4 (17:00) 16.2 (00:00) 22.8 15.28 (08:00) 11.67 (09:20) 0 0 0 0 0
05-09-2019 32.3 (17:10) 21.1 (00:00) 26.7 17.5 (09:30) 12.78 (09:30) 0 0 0 0 0
04-09-2019 35.5 (17:30) 20.3 (00:00) 27.9 11.11 (15:40) 6.11 (15:50) 0 0 0 0 0
03-09-2019 36.3 (17:00) 22.7 (00:00) 29.5 9.17 (06:40) 7.5 (06:40) 0 0 0 0 0
02-09-2019 33.9 (16:00) 21.1 (00:00) 27.5 11.94 (09:00) 9.17 (08:30) 0 0 0 0 0
01-09-2019 36.4 (16:50) 21 (00:00) 28.7 10.28 (16:20) 5.56 (16:30) 0 0 0 0 0
31-08-2019 36.4 (17:30) 21.9 (00:00) 29.2 8.89 (01:10) 5.28 (01:10) 0 0 0 0 0
30-08-2019 36.6 (16:00) 20.8 (00:00) 28.7 9.72 (23:50) 6.11 (23:59) 0 0 0 0 0
29-08-2019 35.8 (17:40) 19 (00:00) 27.4 8.33 (18:00) 4.72 (19:10) 0 0 0 0 0
28-08-2019 33.6 (17:00) 19 (00:00) 26.3 7.5 (15:40) 3.61 (18:20) 0 0 0 0 0
27-08-2019 30.7 (16:50) 15.6 (00:00) 23.2 6.67 (15:50) 3.61 (00:20) 0 0 0 0 0
26-08-2019 29.7 (15:50) 17.7 (00:00) 23.7 12.5 (02:00) 9.17 (01:40) 0 0 0 0 0
25-08-2019 34.5 (17:50) 20.8 (00:00) 27.6 10.83 (17:00) 6.11 (22:50) 3 0 0 0 3
24-08-2019 36.5 (17:10) 23.1 (00:00) 29.8 10 (14:40) 5.83 (11:30) 0 0 0 0 0
23-08-2019 35.3 (16:10) 22.3 (00:00) 28.8 9.72 (16:10) 6.67 (09:30) 0 0 0 0 0

Gráficas

Temp. máximas Temp. mínimas Temp. medias Precipitaciones Rachas de viento máximas Velocidades máximas media en intervalos de 10 minutos

Datos horarios

Fecha y hora oficial Temperatura (ºC) Velocidad del viento (km/h) Dirección del viento Racha (km/h) Dirección de racha Precipitación (mm) Presión (hPa) Tendencia (hPa) Humedad (%)
2019-09-21 23:00:00 18.1 16 Sur 29 Sur 0 -- -- 90
2019-09-21 22:00:00 17.9 15 Sur 30 Sudeste 0 -- -- 92
2019-09-21 21:00:00 18 14 Sudeste 20 Sudeste 0.4 -- -- 92
2019-09-21 20:00:00 18 10 Sudeste 16 Sudeste 2.2 -- -- 93
2019-09-21 19:00:00 18.3 7 Sur 26 Sur 0.6 -- -- 92
2019-09-21 18:00:00 17.4 10 Sudeste 17 Este 0 -- -- 95
2019-09-21 17:00:00 15.8 12 Este 23 Sudeste 0.6 -- -- 96
2019-09-21 16:00:00 15.4 12 Sudeste 22 Este 2.4 -- -- 96
2019-09-21 15:00:00 16.1 13 Sur 20 Sur 2 -- -- 90
2019-09-21 14:00:00 17.7 6 Sur 24 Sur 0.2 -- -- 78
2019-09-21 13:00:00 18.1 11 Sur 22 Sur 0.2 -- -- 78
2019-09-21 12:00:00 18 8 Sudeste 13 Sudeste 0.2 -- -- 87
2019-09-21 11:00:00 17.1 8 Sudeste 14 Sudeste 1.2 -- -- 88
2019-09-21 10:00:00 16.9 5 Sudeste 13 Sudeste 0.6 -- -- 85
2019-09-21 09:00:00 16.9 7 Sudeste 18 Sudeste 0 -- -- 84
2019-09-21 08:00:00 16.9 10 Sudeste 19 Sudeste 0 -- -- 81
2019-09-21 07:00:00 16.8 10 Sudeste 17 Este 0 -- -- 80
2019-09-21 06:00:00 17 9 Sudeste 15 Sudeste 0 -- -- 80
2019-09-21 05:00:00 17.1 8 Sudeste 15 Sudeste 0 -- -- 79
2019-09-21 04:00:00 17.1 8 Sudeste 15 Sudeste 0 -- -- 77
2019-09-21 03:00:00 17.1 9 Sur 15 Sur 0 -- -- 73
2019-09-21 02:00:00 17.1 7 Sur 18 Sudoeste 0 -- -- 75
2019-09-21 01:00:00 17.6 12 Sudoeste 17 Sudoeste 0 -- -- 74
2019-09-21 00:00:00 18.1 6 Sur 17 Sudoeste 0 -- -- 75
2019-09-20 23:00:00 18.9 12 Sur 17 Sur 0 -- -- 73
2019-09-20 22:00:00 19.3 9 Sur 18 Sur 0 -- -- 70
2019-09-20 21:00:00 19.9 12 Sudoeste 26 Sur 0 -- -- 64
2019-09-20 20:00:00 21.2 17 Sudoeste 32 Sudoeste 0 -- -- 60
2019-09-20 19:00:00 24 20 Sudoeste 36 Sudoeste 0 -- -- 48
2019-09-20 18:00:00 25 19 Sudoeste 32 Sur 0 -- -- 45
2019-09-20 17:00:00 25.3 18 Sur 50 Sur 0 -- -- 43
2019-09-20 16:00:00 25.8 22 Sur 37 Sur 0 -- -- 41
2019-09-20 15:00:00 25.5 22 Sudoeste 37 Sur 0 -- -- 42
2019-09-20 14:00:00 26 19 Sur 35 Sudoeste 0 -- -- 41
2019-09-20 13:00:00 25.2 21 Sur 36 Sur 0 -- -- 42
2019-09-20 12:00:00 24.4 18 Sur 32 Sur 0 -- -- 45
2019-09-20 11:00:00 21.8 12 Sudeste 22 Sudeste 0 -- -- 54
2019-09-20 10:00:00 20.8 10 Este 18 Este 0 -- -- 56
2019-09-20 09:00:00 17.3 10 Este 12 Este 0 -- -- 71
2019-09-20 08:00:00 17 4 Este 7 Sudeste 0 -- -- 69
2019-09-20 07:00:00 18 5 Sudeste 10 Sudeste 0 -- -- 63
2019-09-20 06:00:00 18.1 6 Sudeste 13 Sudeste 0 -- -- 62
2019-09-20 05:00:00 18.3 10 Sudeste 16 Sudeste 0 -- -- 60
2019-09-20 04:00:00 18.9 9 Sudeste 12 Este 0 -- -- 57
2019-09-20 03:00:00 19.2 9 Sudeste 13 Sudeste 0 -- -- 56
2019-09-20 02:00:00 19 6 Norte 13 Sudeste 0 -- -- 57
2019-09-20 01:00:00 19.9 7 Noroeste 14 Noroeste 0 -- -- 57
2019-09-20 00:00:00 23.4 7 Este 12 Este 0 -- -- 39
2019-09-19 23:00:00 23.6 7 Este 8 Este 0 -- -- 37
2019-09-19 22:00:00 23.4 2 Sudeste 12 Sur 0 -- -- 40
2019-09-19 21:00:00 24.9 8 Sur 12 Sur 0 -- -- 41
2019-09-19 20:00:00 26.6 9 Sudoeste 19 Sudoeste 0 -- -- 37
2019-09-19 19:00:00 28.1 10 Sudoeste 18 Sudoeste 0 -- -- 36
2019-09-19 18:00:00 28.8 12 Sur 21 Sur 0 -- -- 36
2019-09-19 17:00:00 29.3 12 Sur 22 Sudoeste 0 -- -- 36
2019-09-19 16:00:00 28.7 7 Sur 24 Sudoeste 0 -- -- 40
2019-09-19 15:00:00 28.5 7 Sudoeste 21 Sudoeste 0 -- -- 41
2019-09-19 14:00:00 27 6 Sur 17 Sur 0 -- -- 46
2019-09-19 13:00:00 25.6 7 Sudoeste 13 Sudoeste 0 -- -- 49
2019-09-19 12:00:00 24 5 Sur 10 Sudeste 0 -- -- 54
2019-09-19 11:00:00 21.4 5 Sudeste 10 Sudeste 0 -- -- 62
2019-09-19 10:00:00 18.7 5 Sudeste 8 Sudeste 0 -- -- 67
2019-09-19 09:00:00 17.2 5 Sudeste 9 Sudeste 0 -- -- 69
2019-09-19 08:00:00 17.3 6 Este 10 Sudeste 0 -- -- 67
2019-09-19 07:00:00 18.1 8 Sudeste 12 Sudeste 0 -- -- 64
2019-09-19 06:00:00 18.9 6 Sudeste 13 Sudeste 0 -- -- 58
2019-09-19 05:00:00 19.5 9 Sudeste 15 Este 0 -- -- 56
2019-09-19 04:00:00 19.4 9 Este 13 Sudeste 0 -- -- 59
2019-09-19 03:00:00 19.3 6 Este 9 Este 0 -- -- 61
2019-09-19 02:00:00 20.3 5 Sur 13 Sudeste 0 -- -- 60
2019-09-19 01:00:00 21.9 9 Sudeste 13 Este 0 -- -- 55
2019-09-19 00:00:00 22.2 9 Este 13 Sudeste 0 -- -- 59
2019-09-18 23:00:00 22.2 6 Nordeste 10 Este 0 -- -- 56
2019-09-18 22:00:00 22.6 8 Este 11 Este 0 -- -- 60
2019-09-18 21:00:00 24.5 2 Sudeste 8 Sur 0 -- -- 42
2019-09-18 20:00:00 26.4 7 Sur 15 Sudoeste 0 -- -- 40
2019-09-18 19:00:00 28.3 8 Sudoeste 16 Sur 0 -- -- 37
2019-09-18 18:00:00 28.8 9 Sudoeste 17 Sudoeste 0 -- -- 37
2019-09-18 17:00:00 28.4 7 Noroeste 21 Sudoeste 0 -- -- 41
2019-09-18 16:00:00 28.3 6 Sur 18 Sur 0 -- -- 42
2019-09-18 15:00:00 27.9 10 Sudoeste 16 Sudoeste 0 -- -- 44
2019-09-18 14:00:00 26.1 6 Sudoeste 14 Sur 0 -- -- 49
2019-09-18 13:00:00 25.3 4 Sudoeste 12 Oeste 0 -- -- 52
2019-09-18 12:00:00 23.4 5 Sudoeste 12 Sudeste 0 -- -- 60
2019-09-18 11:00:00 22.1 8 Sudeste 19 Este 0 -- -- 61
2019-09-18 10:00:00 20.8 9 Este 16 Este 0 -- -- 62
2019-09-18 09:00:00 17.6 12 Este 16 Nordeste 0 -- -- 70
2019-09-18 08:00:00 16.3 15 Nordeste 17 Nordeste 0 -- -- 71
2019-09-18 07:00:00 16.4 9 Este 15 Nordeste 0 -- -- 70
2019-09-18 06:00:00 16.1 8 Nordeste 13 Nordeste 0 -- -- 71
2019-09-18 05:00:00 17.1 4 Este 7 Este 0 -- -- 63
2019-09-18 04:00:00 17.3 7 Este 12 Norte 0 -- -- 67
2019-09-18 03:00:00 18.4 8 Este 13 Este 0 -- -- 61
2019-09-18 02:00:00 18.6 9 Sudeste 18 Este 0 -- -- 61
2019-09-18 01:00:00 18.2 10 Este 21 Este 0 -- -- 60
2019-09-18 00:00:00 17.6 12 Este 28 Norte 0 -- -- 70
2019-09-17 23:00:00 17.3 21 Nordeste 54 Este 2 -- -- 74
2019-09-17 22:00:00 16.7 30 Este 51 Nordeste 1.8 -- -- 83
2019-09-17 21:00:00 18.2 22 Nordeste 44 Noroeste 1.2 -- -- 72
2019-09-15 18:00:00 -- -- -- -- -- -- -- -- --
2019-09-15 17:00:00 -- -- -- -- -- -- -- -- --
2019-09-15 16:00:00 -- -- -- -- -- -- -- -- --
2019-09-15 15:00:00 -- -- -- -- -- -- -- -- --
2019-09-15 14:00:00 23.8 6 Nordeste 14 Norte 0 -- -- 62
2019-09-15 13:00:00 22.2 4 Este 10 Noroeste 0 -- -- 67
2019-09-15 12:00:00 20.6 2 Norte 8 Nordeste 0 -- -- 78
2019-09-15 11:00:00 19.5 5 Nordeste 13 Nordeste 0 -- -- 79
2019-09-15 10:00:00 18.4 6 Nordeste 13 Nordeste 0 -- -- 85
2019-09-15 09:00:00 17.2 12 Nordeste 25 Nordeste 0 -- -- 93
2019-09-15 08:00:00 15.8 18 Nordeste 27 Nordeste 0 -- -- 98
2019-09-15 07:00:00 15.7 10 Nordeste 24 Nordeste 0 -- -- 97
2019-09-15 06:00:00 15.9 14 Este 26 Nordeste 6 -- -- 97
2019-09-15 05:00:00 16 11 Nordeste 26 Nordeste 3 -- -- 95
2019-09-15 04:00:00 16.7 15 Nordeste 32 Nordeste 0.2 -- -- 88
2019-09-15 03:00:00 17.2 22 Nordeste 31 Nordeste 0 -- -- 83
2019-09-15 02:00:00 17.7 22 Nordeste 32 Nordeste 0 -- -- 78
2019-09-15 01:00:00 17.3 26 Nordeste 37 Nordeste 0 -- -- 82
2019-09-15 00:00:00 17.4 19 Nordeste 30 Nordeste 0 -- -- 79
2019-09-14 23:00:00 17.7 23 Nordeste 30 Nordeste 0 -- -- 76
2019-09-14 22:00:00 18.3 18 Nordeste 29 Nordeste 0 -- -- 73
2019-09-14 21:00:00 19.3 24 Nordeste 36 Nordeste 0 -- -- 69
2019-09-14 20:00:00 20.6 26 Nordeste 38 Nordeste 0 -- -- 63
2019-09-14 19:00:00 21.5 22 Nordeste 33 Nordeste 0 -- -- 61
2019-09-14 18:00:00 21.8 23 Nordeste 29 Nordeste 0 -- -- 58
2019-09-14 17:00:00 22.1 22 Nordeste 36 Nordeste 0 -- -- 55
2019-09-14 16:00:00 22.5 23 Nordeste 36 Nordeste 0 -- -- 54
2019-09-14 15:00:00 21.6 30 Nordeste 40 Nordeste 0 -- -- 55
2019-09-14 14:00:00 22 26 Nordeste 35 Nordeste 0 -- -- 54
2019-09-14 13:00:00 21.2 20 Este 48 Este 0 -- -- 56
2019-09-14 12:00:00 20.4 28 Este 54 Este 0 -- -- 58
2019-09-14 11:00:00 20.1 26 Este 47 Este 0 -- -- 59
2019-09-14 10:00:00 19.9 27 Este 43 Este 0 -- -- 60
2019-09-14 09:00:00 18.9 28 Nordeste 54 Nordeste 0 -- -- 66
2019-09-14 08:00:00 18 33 Nordeste 48 Nordeste 0 -- -- 71
2019-09-14 07:00:00 17.6 29 Nordeste 43 Nordeste 0 -- -- 76
2019-09-14 06:00:00 -- -- -- -- -- -- -- -- --
2019-09-14 05:00:00 -- -- -- -- -- -- -- -- --
2019-09-14 04:00:00 -- -- -- -- -- -- -- -- --
2019-09-14 03:00:00 -- -- -- -- -- -- -- -- --
2019-09-14 02:00:00 17.6 21 Nordeste 33 Nordeste 0 -- -- 77
2019-09-14 01:00:00 17.7 26 Nordeste 36 Nordeste 0 -- -- 75
2019-09-14 00:00:00 17.7 19 Nordeste 33 Nordeste 0 -- -- 73
2019-09-13 23:00:00 18.5 18 Nordeste 34 Nordeste 0 -- -- 69
2019-09-13 22:00:00 18.7 23 Nordeste 38 Este 0 -- -- 67
2019-09-13 21:00:00 18.8 28 Nordeste 46 Nordeste 0 -- -- 64
2019-09-13 20:00:00 19.3 40 Nordeste 51 Nordeste 0 -- -- 60
2019-09-13 19:00:00 20.6 32 Nordeste 49 Nordeste 0 -- -- 55
2019-09-13 18:00:00 21.1 35 Nordeste 61 Nordeste 0 -- -- 56
2019-09-13 17:00:00 19.6 35 Nordeste 60 Nordeste 0 -- -- 60
2019-09-13 16:00:00 20.5 40 Nordeste 64 Nordeste 0 -- -- 54
2019-09-13 15:00:00 23.1 37 Nordeste 57 Este 0 -- -- 41
2019-09-13 14:00:00 23.6 27 Este 53 Este 0 -- -- 38
2019-09-13 13:00:00 22.2 16 Este 30 Este 0 -- -- 43
2019-09-13 12:00:00 23.7 22 Este 49 Nordeste 0 -- -- 36
2019-09-13 11:00:00 22.7 37 Nordeste 49 Nordeste 0 -- -- 37
2019-09-13 10:00:00 21.7 18 Nordeste 37 Nordeste 0 -- -- 41
2019-09-13 09:00:00 19.9 6 Noroeste 13 Este 0 -- -- 39
2019-09-13 08:00:00 18.6 8 Nordeste 15 Nordeste 0 -- -- 37
2019-09-13 07:00:00 19.6 13 Nordeste 33 Nordeste 0 -- -- 35
2019-09-13 06:00:00 19.3 21 Nordeste 35 Nordeste 0 -- -- 40
2019-09-13 05:00:00 20.1 23 Este 32 Nordeste 0 -- -- 42
2019-09-13 04:00:00 20.2 19 Nordeste 28 Este 0 -- -- 47
2019-09-13 03:00:00 20.5 16 Este 32 Este 0 -- -- 46
2019-09-13 02:00:00 21 17 Este 26 Este 0 -- -- 53
2019-09-13 01:00:00 21.1 19 Nordeste 23 Nordeste 0 -- -- 52
2019-09-13 00:00:00 20.9 8 Nordeste 26 Este 0 -- -- 52
2019-09-12 23:00:00 22.5 23 Este 32 Nordeste 0 -- -- 48
2019-09-12 22:00:00 22.1 12 Nordeste 20 Este 0 -- -- 48
2019-09-12 21:00:00 22.6 10 Nordeste 17 Nordeste 0 -- -- 47
2019-09-12 20:00:00 23.9 10 Este 40 Este 0 -- -- 46
2019-09-12 19:00:00 24.4 27 Sudeste 49 Sudeste 0 -- -- 46
2019-09-12 18:00:00 27.4 32 Este 48 Nordeste 0 -- -- 35
2019-09-12 17:00:00 28.9 29 Este 47 Nordeste 0 -- -- 32
2019-09-12 16:00:00 28.9 26 Nordeste 46 Nordeste 0 -- -- 32
2019-09-12 15:00:00 28.1 32 Nordeste 47 Nordeste 0 -- -- 33
2019-09-12 14:00:00 26.5 29 Nordeste 46 Nordeste 0 -- -- 35
2019-09-12 13:00:00 25.9 29 Nordeste 44 Nordeste 0 -- -- 36
2019-09-12 12:00:00 24.5 32 Este 54 Nordeste 0 -- -- 38
2019-09-12 11:00:00 23.1 37 Nordeste 59 Nordeste 0 -- -- 40
2019-09-12 10:00:00 21.4 34 Nordeste 49 Nordeste 0 -- -- 43
2019-09-12 09:00:00 19.7 34 Nordeste 49 Nordeste 0 -- -- 45
2019-09-12 08:00:00 18.6 37 Nordeste 54 Este 0 -- -- 47
2019-09-12 07:00:00 18.8 36 Nordeste 50 Nordeste 0 -- -- 46
2019-09-12 06:00:00 18.8 27 Nordeste 41 Nordeste 0 -- -- 45
2019-09-12 05:00:00 19.3 22 Nordeste 38 Nordeste 0 -- -- 44
2019-09-12 04:00:00 19.7 18 Este 38 Este 0 -- -- 42
2019-09-12 03:00:00 20.4 23 Este 36 Este 0 -- -- 40
2019-09-12 02:00:00 21 24 Este 36 Nordeste 0 -- -- 38
2019-09-12 01:00:00 21.7 23 Este 32 Este 0 -- -- 36
2019-09-12 00:00:00 22 18 Este 27 Este 0 -- -- 34
2019-09-11 23:00:00 23.5 22 Nordeste 33 Nordeste 0 -- -- 32
2019-09-11 22:00:00 24.2 19 Este 36 Este 0 -- -- 31
2019-09-11 21:00:00 24.4 18 Este 28 Este 0 -- -- 31
2019-09-11 20:00:00 25.5 8 Norte 31 Nordeste 0 -- -- 30
2019-09-11 19:00:00 26.7 20 Nordeste 31 Nordeste 0 -- -- 27
2019-09-11 18:00:00 27.3 20 Nordeste 33 Norte 0 -- -- 26
2019-09-11 17:00:00 27.3 13 Nordeste 33 Nordeste 0 -- -- 26
2019-09-11 16:00:00 26.7 21 Nordeste 35 Nordeste 0 -- -- 26
2019-09-11 15:00:00 26 14 Nordeste 32 Nordeste 0 -- -- 28
2019-09-11 14:00:00 25.2 16 Nordeste 31 Nordeste 0 -- -- 29
2019-09-11 13:00:00 23.7 11 Nordeste 26 Nordeste 0 -- -- 31
2019-09-11 12:00:00 22.5 10 Nordeste 24 Nordeste 0 -- -- 33
2019-09-11 11:00:00 20.4 6 Nordeste 14 Norte 0 -- -- 38
2019-09-11 10:00:00 17.7 7 Norte 15 Este 0 -- -- 43
2019-09-11 09:00:00 15.7 8 Nordeste 14 Este 0 -- -- 49
2019-09-11 08:00:00 13.3 9 Nordeste 18 Nordeste 0 -- -- 54
2019-09-11 07:00:00 14 13 Este 22 Nordeste 0 -- -- 51
2019-09-11 06:00:00 14.5 21 Nordeste 25 Nordeste 0 -- -- 50
2019-09-11 05:00:00 15.1 19 Nordeste 26 Nordeste 0 -- -- 49
2019-09-11 04:00:00 14.6 14 Nordeste 18 Este 0 -- -- 50
2019-09-11 03:00:00 16.4 15 Nordeste 31 Nordeste 0 -- -- 46
2019-09-11 02:00:00 16.5 15 Nordeste 24 Nordeste 0 -- -- 45
2019-09-11 01:00:00 16.9 6 Norte 34 Norte 0 -- -- 42
2019-09-11 00:00:00 18.7 20 Norte 35 Norte 0 -- -- 37
2019-09-10 23:00:00 18.5 11 Norte 24 Norte 0 -- -- 34
2019-09-10 22:00:00 19.1 14 Norte 24 Noroeste 0 -- -- 31
2019-09-10 21:00:00 19.6 12 Norte 37 Norte 0 -- -- 29
2019-09-10 20:00:00 21.7 18 Norte 34 Norte 0 -- -- 26
2019-09-10 19:00:00 23.5 13 Norte 33 Norte 0 -- -- 23
2019-09-10 18:00:00 24.5 17 Norte 39 Nordeste 0 -- -- 21
2019-09-10 17:00:00 24.3 21 Noroeste 40 Noroeste 0 -- -- 22
2019-09-10 16:00:00 24.4 15 Noroeste 36 Norte 0 -- -- 22
2019-09-10 15:00:00 24.3 12 Norte 36 Norte 0 -- -- 21
2019-09-10 14:00:00 23.4 12 Norte 33 Norte 0 -- -- 24
2019-09-10 13:00:00 22.5 9 Nordeste 28 Norte 0 -- -- 32
2019-09-10 12:00:00 21 14 Nordeste 30 Norte 0 -- -- 37
2019-09-10 11:00:00 19.4 19 Noroeste 37 Norte 0 -- -- 34
2019-09-10 10:00:00 17.1 20 Noroeste 35 Noroeste 0 -- -- 52
2019-09-10 09:00:00 15.2 15 Noroeste 46 Oeste 0 -- -- 66
2019-09-10 08:00:00 15 27 Noroeste 49 Noroeste 0 -- -- 68
2019-09-10 07:00:00 15.3 12 Oeste 36 Noroeste 0 -- -- 63
2019-09-10 06:00:00 16.1 18 Noroeste 34 Oeste 0 -- -- 59
2019-09-10 05:00:00 14.5 7 Oeste 19 Noroeste 0 -- -- 67
2019-09-10 04:00:00 15 5 Oeste 17 Sudoeste 0 -- -- 64
2019-09-10 03:00:00 15.3 7 Oeste 17 Sudoeste 0 -- -- 57
2019-09-10 02:00:00 16.2 6 Sudoeste 15 Oeste 0 -- -- 50
2019-09-10 01:00:00 17.2 8 Oeste 15 Oeste 0 -- -- 49
2019-09-10 00:00:00 18.7 9 Sudoeste 17 Sudoeste 0 -- -- 44
2019-09-09 23:00:00 19.9 10 Oeste 24 Oeste 0 -- -- 39
2019-09-09 22:00:00 21.2 11 Oeste 34 Sudoeste 0 -- -- 35
2019-09-09 21:00:00 23.5 14 Oeste 40 Oeste 0 -- -- 33
2019-09-09 20:00:00 25.3 16 Sudoeste 35 Sudoeste 0 -- -- 25
2019-09-09 19:00:00 26.9 17 Oeste 39 Sudoeste 0 -- -- 19
2019-09-09 18:00:00 29 20 Oeste 43 Oeste 0 -- -- 15
2019-09-09 17:00:00 31.2 18 Oeste 47 Sudoeste 0 -- -- 15
2019-09-09 16:00:00 31.1 20 Oeste 48 Oeste 0 -- -- 14
2019-09-09 15:00:00 29.9 18 Oeste 67 Sudoeste 0 -- -- 17
2019-09-09 14:00:00 29.5 15 Oeste 36 Oeste 0 -- -- 17
2019-09-09 13:00:00 28.4 16 Oeste 32 Sudoeste 0 -- -- 19
2019-09-09 12:00:00 26.5 15 Sudoeste 30 Sudoeste 0 -- -- 24
2019-09-09 11:00:00 23.3 10 Sudoeste 17 Sudoeste 0 -- -- 29
2019-09-09 10:00:00 20.3 6 Sur 12 Sudeste 0 -- -- 37
2019-09-09 09:00:00 18.1 7 Sudeste 14 Sudeste 0 -- -- 43
2019-09-09 08:00:00 17.1 11 Sudeste 17 Sudeste 0 -- -- 46
2019-09-09 07:00:00 17.4 9 Sudeste 13 Sudeste 0 -- -- 43
2019-09-09 06:00:00 17.7 6 Sudeste 9 Sudeste 0 -- -- 39
2019-09-09 05:00:00 18.7 4 Sur 14 Sudeste 0 -- -- 37
2019-09-09 04:00:00 20.2 9 Sudeste 13 Sudeste 0 -- -- 38
2019-09-09 03:00:00 20.3 6 Sudeste 17 Sudeste 0 -- -- 32
2019-09-09 02:00:00 21.2 10 Sudeste 15 Sudeste 0 -- -- 29
2019-09-09 01:00:00 22.6 10 Sudeste 14 Sudeste 0 -- -- 27
2019-09-09 00:00:00 23.5 4 Oeste 8 Noroeste 0 -- -- 28
2019-09-08 23:00:00 24.1 5 Oeste 10 Oeste 0 -- -- 27
2019-09-08 22:00:00 24.7 5 Noroeste 10 Oeste 0 -- -- 26
2019-09-08 21:00:00 25.7 6 Oeste 17 Noroeste 0 -- -- 22
2019-09-08 20:00:00 28.4 10 Oeste 24 Oeste 0 -- -- 18
2019-09-08 19:00:00 30.6 9 Oeste 33 Sudoeste 0 -- -- 23
2019-09-08 18:00:00 31 6 Sudeste 22 Noroeste 0 -- -- 23
2019-09-08 17:00:00 31.1 8 Noroeste 22 Noroeste 0 -- -- 24
2019-09-08 16:00:00 30.5 12 Noroeste 29 Oeste 0 -- -- 28
2019-09-08 15:00:00 29.8 9 Norte 27 Norte 0 -- -- 30
2019-09-08 14:00:00 29.3 8 Norte 17 Noroeste 0 -- -- 32
2019-09-08 13:00:00 28.5 6 Nordeste 19 Norte 0 -- -- 34
2019-09-08 12:00:00 25.9 11 Nordeste 22 Nordeste 0 -- -- 39
2019-09-08 11:00:00 24.1 15 Nordeste 28 Nordeste 0 -- -- 42
2019-09-08 10:00:00 21.5 23 Nordeste 30 Nordeste 0 -- -- 45
2019-09-08 09:00:00 19.6 19 Nordeste 34 Nordeste 0 -- -- 47
2019-09-08 08:00:00 18.2 26 Nordeste 38 Nordeste 0 -- -- 47
2019-09-08 07:00:00 19.2 29 Nordeste 37 Nordeste 0 -- -- 42
2019-09-08 06:00:00 19.8 28 Nordeste 37 Nordeste 0 -- -- 37
2019-09-08 05:00:00 20.5 23 Nordeste 32 Nordeste 0 -- -- 34
2019-09-08 04:00:00 21.3 21 Nordeste 29 Nordeste 0 -- -- 36
2019-09-08 03:00:00 22.5 19 Nordeste 28 Nordeste 0 -- -- 36
2019-09-08 02:00:00 22.5 15 Nordeste 21 Nordeste 0 -- -- 35
2019-09-08 01:00:00 22.2 15 Nordeste 19 Nordeste 0 -- -- 34
2019-09-08 00:00:00 22 10 Nordeste 15 Norte 0 -- -- 35
2019-09-07 23:00:00 22.9 9 Nordeste 13 Norte 0 -- -- 33
2019-09-07 22:00:00 23.2 12 Norte 13 Norte 0 -- -- 31
2019-09-07 21:00:00 25.1 8 Norte 13 Noroeste 0 -- -- 28
2019-09-07 20:00:00 28.2 6 Norte 18 Norte 0 -- -- 27
2019-09-07 19:00:00 29.9 9 Norte 20 Norte 0 -- -- 25
2019-09-07 18:00:00 30.4 9 Noroeste 24 Noroeste 0 -- -- 26
2019-09-07 17:00:00 30.4 11 Norte 23 Norte 0 -- -- 27
2019-09-07 16:00:00 30.4 8 Este 29 Nordeste 0 -- -- 28
2019-09-07 15:00:00 29.4 15 Nordeste 29 Nordeste 0 -- -- 30
2019-09-07 14:00:00 28 20 Nordeste 33 Nordeste 0 -- -- 33
2019-09-07 13:00:00 26.6 24 Nordeste 48 Nordeste 0 -- -- 37
2019-09-07 12:00:00 23.9 33 Nordeste 49 Nordeste 0 -- -- 45
2019-09-07 11:00:00 21.8 35 Nordeste 55 Nordeste 0 -- -- 48
2019-09-07 10:00:00 20.1 39 Nordeste 50 Nordeste 0 -- -- 51
2019-09-07 09:00:00 18.1 41 Nordeste 51 Nordeste 0 -- -- 40
2019-09-07 08:00:00 16.9 33 Nordeste 43 Nordeste 0 -- -- 39
2019-09-07 07:00:00 17.6 34 Nordeste 42 Nordeste 0 -- -- 36
2019-09-07 06:00:00 18.3 35 Nordeste 42 Nordeste 0 -- -- 33
2019-09-07 05:00:00 19.1 28 Nordeste 35 Nordeste 0 -- -- 30
2019-09-07 04:00:00 20.2 22 Nordeste 31 Nordeste 0 -- -- 26
2019-09-07 03:00:00 21.4 27 Nordeste 43 Nordeste 0 -- -- 24
2019-09-07 02:00:00 23.3 27 Nordeste 38 Este 0 -- -- 21
2019-09-07 01:00:00 22.2 19 Nordeste 27 Nordeste 0 -- -- 23
2019-09-07 00:00:00 22.6 19 Nordeste 25 Nordeste 0 -- -- 26
2019-09-06 23:00:00 22.4 17 Nordeste 21 Nordeste 0 -- -- 30
2019-09-06 22:00:00 22.7 15 Nordeste 19 Nordeste 0 -- -- 30
2019-09-06 21:00:00 23.7 10 Nordeste 18 Norte 0 -- -- 29
2019-09-06 20:00:00 26.8 11 Norte 22 Norte 0 -- -- 25
2019-09-06 19:00:00 28.6 11 Nordeste 22 Nordeste 0 -- -- 23
2019-09-06 18:00:00 29.1 10 Nordeste 26 Nordeste 0 -- -- 23
2019-09-06 17:00:00 29.4 12 Nordeste 40 Nordeste 0 -- -- 24
2019-09-06 16:00:00 28.3 10 Norte 23 Nordeste 0 -- -- 24
2019-09-06 15:00:00 27.3 18 Nordeste 34 Nordeste 0 -- -- 24
2019-09-06 14:00:00 26 24 Nordeste 39 Nordeste 0 -- -- 25
2019-09-06 13:00:00 24.5 26 Nordeste 40 Nordeste 0 -- -- 27
2019-09-06 12:00:00 22.6 30 Nordeste 47 Nordeste 0 -- -- 29
2019-09-06 11:00:00 20.7 35 Nordeste 53 Nordeste 0 -- -- 31
2019-09-06 10:00:00 18.5 39 Nordeste 54 Nordeste 0 -- -- 34
2019-09-06 09:00:00 16.9 40 Nordeste 54 Nordeste 0 -- -- 36
2019-09-06 08:00:00 16.2 41 Nordeste 55 Nordeste 0 -- -- 39
2019-09-06 07:00:00 16.6 36 Nordeste 48 Nordeste 0 -- -- 41
2019-09-06 06:00:00 17.3 35 Nordeste 47 Nordeste 0 -- -- 41
2019-09-06 05:00:00 18.4 35 Nordeste 45 Nordeste 0 -- -- 38
2019-09-06 04:00:00 19.3 30 Nordeste 43 Nordeste 0 -- -- 34
2019-09-06 03:00:00 20.4 31 Nordeste 45 Nordeste 0 -- -- 31
2019-09-06 02:00:00 21.7 17 Este 45 Nordeste 0 -- -- 28
2019-09-06 01:00:00 23.2 32 Nordeste 42 Nordeste 0 -- -- 27
2019-09-06 00:00:00 24.6 27 Nordeste 40 Nordeste 0 -- -- 23
2019-09-05 23:00:00 24.8 21 Nordeste 28 Este 0 -- -- 26
2019-09-05 22:00:00 25 14 Nordeste 15 Nordeste 0 -- -- 31
2019-09-05 21:00:00 26.7 11 Nordeste 19 Nordeste 0 -- -- 29
2019-09-05 20:00:00 29.3 10 Nordeste 26 Norte 0 -- -- 25
2019-09-05 19:00:00 31 15 Nordeste 33 Nordeste 0 -- -- 23
2019-09-05 18:00:00 31.7 21 Nordeste 32 Nordeste 0 -- -- 22
2019-09-05 17:00:00 31.8 25 Nordeste 38 Nordeste 0 -- -- 22
2019-09-05 16:00:00 31.5 27 Nordeste 46 Nordeste 0 -- -- 22
2019-09-05 15:00:00 30.5 30 Nordeste 50 Nordeste 0 -- -- 26
2019-09-05 14:00:00 29.3 34 Nordeste 56 Nordeste 0 -- -- 29
2019-09-05 13:00:00 28.1 37 Nordeste 60 Nordeste 0 -- -- 31
2019-09-05 12:00:00 26.1 42 Nordeste 62 Nordeste 0 -- -- 33
2019-09-05 11:00:00 25 40 Nordeste 58 Nordeste 0 -- -- 37
2019-09-05 10:00:00 23.1 40 Nordeste 63 Nordeste 0 -- -- 45
2019-09-05 09:00:00 21.4 41 Nordeste 53 Nordeste 0 -- -- 42
2019-09-05 08:00:00 21.1 33 Nordeste 43 Nordeste 0 -- -- 41
2019-09-05 07:00:00 22.2 22 Nordeste 32 Nordeste 0 -- -- 34
2019-09-05 06:00:00 22.8 23 Nordeste 33 Nordeste 0 -- -- 31
2019-09-05 05:00:00 23.1 22 Nordeste 29 Nordeste 0 -- -- 29
2019-09-05 04:00:00 22.3 12 Norte 16 Norte 0 -- -- 27
2019-09-05 03:00:00 21.9 5 Nordeste 13 Nordeste 0 -- -- 27
2019-09-05 02:00:00 23.9 10 Sudeste 15 Sudeste 0 -- -- 24
2019-09-05 01:00:00 24 11 Norte 21 Noroeste 0 -- -- 24
2019-09-05 00:00:00 27.2 10 Noroeste 25 Oeste 0 -- -- 21
2019-09-04 23:00:00 27.8 13 Noroeste 22 Noroeste 0 -- -- 20
2019-09-04 22:00:00 29.1 12 Noroeste 22 Noroeste 0 -- -- 18
2019-09-04 21:00:00 30.1 10 Noroeste 28 Oeste 0 -- -- 18
2019-09-04 20:00:00 32.5 14 Noroeste 35 Oeste 0 -- -- 16
2019-09-04 19:00:00 34.3 14 Noroeste 37 Noroeste 0 -- -- 15
2019-09-04 18:00:00 35.1 12 Oeste 37 Noroeste 0 -- -- 15
2019-09-04 17:00:00 35 17 Noroeste 37 Oeste 0 -- -- 15
2019-09-04 16:00:00 34.5 22 Noroeste 40 Noroeste 0 -- -- 14
2019-09-04 15:00:00 34.7 16 Noroeste 32 Noroeste 0 -- -- 13
2019-09-04 14:00:00 34 18 Noroeste 36 Noroeste 0 -- -- 16
2019-09-04 13:00:00 33.6 9 Noroeste 27 Norte 0 -- -- 17
2019-09-04 12:00:00 32.2 5 Noroeste 11 Sudoeste 0 -- -- 22
2019-09-04 11:00:00 29.3 5 Sur 12 Nordeste 0 -- -- 28
2019-09-04 10:00:00 26.6 3 Este 9 Norte 0 -- -- 32
2019-09-04 09:00:00 22.9 4 Norte 9 Oeste 0 -- -- 40
2019-09-04 08:00:00 21.8 2 Nordeste 11 Este 0 -- -- 39
2019-09-04 07:00:00 21.9 5 Este 11 Norte 0 -- -- 41
2019-09-04 06:00:00 21.6 9 Norte 12 Este 0 -- -- 40
2019-09-04 05:00:00 21.1 13 Este 15 Este 0 -- -- 38
2019-09-04 04:00:00 22.8 8 Este 16 Oeste 0 -- -- 34
2019-09-04 03:00:00 23.9 12 Este 13 Este 0 -- -- 34
2019-09-04 02:00:00 24.4 6 Nordeste 9 Norte 0 -- -- 35
2019-09-04 01:00:00 24.7 5 Norte 12 Norte 0 -- -- 33
2019-09-04 00:00:00 26 10 Norte 17 Noroeste 0 -- -- 30
2019-09-03 23:00:00 28.4 5 Noroeste 13 Noroeste 0 -- -- 26
2019-09-03 22:00:00 29.4 10 Noroeste 15 Noroeste 0 -- -- 24
2019-09-03 21:00:00 30.3 7 Noroeste 19 Noroeste 0 -- -- 20
2019-09-03 20:00:00 32.5 14 Norte 26 Noroeste 0 -- -- 16
2019-09-03 19:00:00 35 7 Sudoeste 26 Noroeste 0 -- -- 20
2019-09-03 18:00:00 35.1 8 Noroeste 22 Noroeste 0 -- -- 19
2019-09-03 17:00:00 36.3 8 Sudoeste 21 Noroeste 0 -- -- 22
2019-09-03 16:00:00 32.1 11 Norte 24 Noroeste 0 -- -- 29
2019-09-03 15:00:00 35.9 9 Sudoeste 20 Sudoeste 0 -- -- 24
2019-09-03 14:00:00 33.9 10 Sudoeste 16 Sudoeste 0 -- -- 27
2019-09-03 13:00:00 32.6 8 Sudoeste 15 Sur 0 -- -- 29
2019-09-03 12:00:00 30.6 6 Oeste 15 Sudoeste 0 -- -- 32
2019-09-03 11:00:00 28.4 5 Sur 10 Sudeste 0 -- -- 36
2019-09-03 10:00:00 25.9 6 Este 12 Este 0 -- -- 41
2019-09-03 09:00:00 24.3 9 Este 21 Este 0 -- -- 46
2019-09-03 08:00:00 22.9 12 Este 32 Nordeste 0 -- -- 48
2019-09-03 07:00:00 23.3 18 Nordeste 33 Nordeste 0 -- -- 47
2019-09-03 06:00:00 23.8 19 Nordeste 24 Nordeste 0 -- -- 46
2019-09-03 05:00:00 24 15 Nordeste 21 Nordeste 0 -- -- 46
2019-09-03 04:00:00 23.6 10 Este 18 Nordeste 0 -- -- 46
2019-09-03 03:00:00 25.6 15 Nordeste 19 Nordeste 0 -- -- 42
2019-09-03 02:00:00 25.6 15 Nordeste 22 Nordeste 0 -- -- 41
2019-09-03 01:00:00 26.3 17 Nordeste 22 Nordeste 0 -- -- 40
2019-09-03 00:00:00 25.5 8 Norte 17 Nordeste 0 -- -- 41
2019-09-02 23:00:00 27.4 15 Nordeste 19 Nordeste 0 -- -- 37
2019-09-02 22:00:00 27.8 15 Nordeste 18 Nordeste 0 -- -- 37
2019-09-02 21:00:00 28.9 8 Nordeste 15 Nordeste 0 -- -- 36
2019-09-02 20:00:00 31.7 12 Nordeste 20 Nordeste 0 -- -- 31
2019-09-02 19:00:00 33.2 11 Este 17 Este 0 -- -- 29
2019-09-02 18:00:00 32.8 10 Norte 25 Noroeste 0 -- -- 30
2019-09-02 17:00:00 33.6 11 Noroeste 25 Noroeste 0 -- -- 30
2019-09-02 16:00:00 33.9 14 Norte 31 Nordeste 0 -- -- 30
2019-09-02 15:00:00 32.7 19 Nordeste 33 Nordeste 0 -- -- 33
2019-09-02 14:00:00 31.7 15 Nordeste 29 Nordeste 0 -- -- 34
2019-09-02 13:00:00 30.6 17 Nordeste 30 Nordeste 0 -- -- 37
2019-09-02 12:00:00 28.4 24 Nordeste 36 Nordeste 0 -- -- 41
2019-09-02 11:00:00 26.2 27 Nordeste 34 Nordeste 0 -- -- 46
2019-09-02 10:00:00 23.6 27 Nordeste 42 Nordeste 0 -- -- 54
2019-09-02 09:00:00 21.8 31 Nordeste 43 Nordeste 0 -- -- 59
2019-09-02 08:00:00 21.1 25 Nordeste 38 Nordeste 0 -- -- 61
2019-09-02 07:00:00 22 31 Nordeste 39 Nordeste 0 -- -- 59
2019-09-02 06:00:00 22.9 22 Nordeste 29 Nordeste 0 -- -- 51
2019-09-02 05:00:00 23.6 17 Nordeste 21 Nordeste 0 -- -- 44
2019-09-02 04:00:00 23.3 13 Nordeste 16 Nordeste 0 -- -- 43
2019-09-02 03:00:00 24.2 10 Sudeste 14 Este 0 -- -- 41
2019-09-02 02:00:00 25.1 9 Este 12 Sudeste 0 -- -- 39
2019-09-02 01:00:00 26 3 Oeste 10 Oeste 0 -- -- 36
2019-09-02 00:00:00 27.4 5 Oeste 14 Noroeste 0 -- -- 33
2019-09-01 23:00:00 27.8 10 Noroeste 17 Noroeste 0 -- -- 33
2019-09-01 22:00:00 28.2 12 Norte 16 Norte 0 -- -- 32
2019-09-01 21:00:00 29.5 10 Norte 18 Norte 0 -- -- 31
2019-09-01 20:00:00 31.1 12 Norte 20 Norte 0 -- -- 29
2019-09-01 19:00:00 33.9 10 Oeste 26 Oeste 0 -- -- 22
2019-09-01 18:00:00 35.4 13 Oeste 31 Sudoeste 0 -- -- 22
2019-09-01 17:00:00 36 13 Oeste 37 Sudoeste 0 -- -- 22
2019-09-01 16:00:00 36.2 12 Sudoeste 31 Sudoeste 0 -- -- 23
2019-09-01 15:00:00 35.3 10 Sudoeste 30 Sudoeste 0 -- -- 24
2019-09-01 14:00:00 34 9 Oeste 22 Sudoeste 0 -- -- 26
2019-09-01 13:00:00 33 9 Sudoeste 18 Sudoeste 0 -- -- 27
2019-09-01 12:00:00 30.1 10 Sudoeste 16 Sudoeste 0 -- -- 33
2019-09-01 11:00:00 26.7 8 Sur 13 Sur 0 -- -- 40
2019-09-01 10:00:00 23.7 6 Sur 12 Sudeste 0 -- -- 45
2019-09-01 09:00:00 22 9 Sudeste 15 Sudeste 0 -- -- 48
2019-09-01 08:00:00 21.6 11 Este 17 Sudeste 0 -- -- 49
2019-09-01 07:00:00 21 8 Este 13 Sudeste 0 -- -- 50
2019-09-01 06:00:00 21.6 9 Sudeste 14 Sudeste 0 -- -- 49
2019-09-01 05:00:00 22 6 Sudeste 11 Sudeste 0 -- -- 47
2019-09-01 04:00:00 23 9 Sudeste 13 Sudeste 0 -- -- 46
2019-09-01 03:00:00 23.6 8 Sudeste 12 Sudeste 0 -- -- 44
2019-09-01 02:00:00 24 3 Sudeste 6 Sudoeste 0 -- -- 41
2019-09-01 01:00:00 25.1 4 Oeste 15 Oeste 0 -- -- 39
2019-09-01 00:00:00 26.5 7 Oeste 19 Noroeste 0 -- -- 38
2019-08-31 23:00:00 27.5 8 Noroeste 18 Sudoeste 0 -- -- 34
2019-08-31 22:00:00 29.1 3 Nordeste 11 Este 0 -- -- 31
2019-08-31 21:00:00 31 6 Sudeste 18 Sudeste 0 -- -- 28
2019-08-31 20:00:00 33.3 8 Sudeste 21 Este 0 -- -- 26
2019-08-31 19:00:00 34.2 9 Sudeste 25 Sudeste 0 -- -- 25
2019-08-31 18:00:00 35.1 12 Sudoeste 26 Sudoeste 0 -- -- 22
2019-08-31 17:00:00 36 13 Sudoeste 30 Sudoeste 0 -- -- 22
2019-08-31 16:00:00 35.7 11 Oeste 22 Oeste 0 -- -- 23
2019-08-31 15:00:00 35.1 11 Oeste 22 Sudoeste 0 -- -- 24
2019-08-31 14:00:00 34.1 7 Sur 16 Sudoeste 0 -- -- 25
2019-08-31 13:00:00 33.2 6 Sudoeste 18 Sudeste 0 -- -- 26
2019-08-31 12:00:00 31.7 8 Sur 18 Sudoeste 0 -- -- 28
2019-08-31 11:00:00 29.5 8 Sudeste 13 Sudeste 0 -- -- 32
2019-08-31 10:00:00 27.9 3 Sur 11 Sudeste 0 -- -- 34
2019-08-31 09:00:00 24.7 8 Nordeste 12 Nordeste 0 -- -- 40
2019-08-31 08:00:00 22.6 9 Este 15 Este 0 -- -- 44
2019-08-31 07:00:00 22.1 13 Nordeste 18 Este 0 -- -- 46
2019-08-31 06:00:00 22.3 15 Este 19 Este 0 -- -- 46
2019-08-31 05:00:00 22.1 13 Este 19 Nordeste 0 -- -- 47
2019-08-31 04:00:00 22.8 14 Nordeste 21 Nordeste 0 -- -- 46
2019-08-31 03:00:00 23.3 7 Norte 17 Nordeste 0 -- -- 44
2019-08-31 02:00:00 25.6 13 Este 32 Este 0 -- -- 38
2019-08-31 01:00:00 26.6 15 Este 31 Este 0 -- -- 36
2019-08-31 00:00:00 27.8 22 Este 35 Sudeste 0 -- -- 33
2019-08-30 23:00:00 27.8 10 Este 20 Nordeste 0 -- -- 33
2019-08-30 22:00:00 30.4 5 Sudeste 8 Sudeste 0 -- -- 27
2019-08-30 21:00:00 31.7 4 Sudeste 14 Sur 0 -- -- 26
2019-08-30 20:00:00 33.7 6 Sur 19 Sudoeste 0 -- -- 24
2019-08-30 19:00:00 34.8 9 Sur 17 Sur 0 -- -- 23
2019-08-30 18:00:00 35.2 9 Sur 26 Sur 0 -- -- 22
2019-08-30 17:00:00 35.1 15 Sur 27 Sudoeste 0 -- -- 23
2019-08-30 16:00:00 36.6 7 Sudeste 26 Sudeste 0 -- -- 22
2019-08-30 15:00:00 35.3 8 Sudoeste 23 Sudoeste 0 -- -- 23
2019-08-30 14:00:00 34.4 9 Sudoeste 21 Sur 0 -- -- 24
2019-08-30 13:00:00 33.6 7 Sur 17 Sur 0 -- -- 25
2019-08-30 12:00:00 31.6 5 Sudeste 15 Sudeste 0 -- -- 28
2019-08-30 11:00:00 28.6 8 Sur 12 Sur 0 -- -- 32
2019-08-30 10:00:00 25.7 5 Sur 12 Noroeste 0 -- -- 37
2019-08-30 09:00:00 23.9 3 Norte 8 Nordeste 0 -- -- 40
2019-08-30 08:00:00 21.3 6 Este 15 Este 0 -- -- 45
2019-08-30 07:00:00 22.4 9 Este 15 Este 0 -- -- 42
2019-08-30 06:00:00 21.8 8 Este 10 Este 0 -- -- 43
2019-08-30 05:00:00 22.8 7 Sudeste 13 Sudeste 0 -- -- 41
2019-08-30 04:00:00 23.7 10 Sudeste 19 Este 0 -- -- 39
2019-08-30 03:00:00 23.7 9 Sudeste 14 Sudeste 0 -- -- 39
2019-08-30 02:00:00 24.1 7 Sudeste 12 Sudeste 0 -- -- 39
2019-08-30 01:00:00 25.3 7 Noroeste 14 Norte 0 -- -- 34
2019-08-30 00:00:00 27.3 7 Noroeste 14 Noroeste 0 -- -- 31
2019-08-29 23:00:00 28.5 5 Sudeste 8 Sudeste 0 -- -- 29
2019-08-29 22:00:00 29.6 5 Sudeste 11 Sur 0 -- -- 27
2019-08-29 21:00:00 30.8 8 Sur 22 Sudeste 0 -- -- 26
2019-08-29 20:00:00 33 14 Sur 27 Sur 0 -- -- 25
2019-08-29 19:00:00 34.8 14 Sur 24 Sur 0 -- -- 23
2019-08-29 18:00:00 35.3 16 Sudoeste 30 Sur 0 -- -- 23
2019-08-29 17:00:00 34.9 12 Sudeste 23 Sudeste 0 -- -- 23
2019-08-29 16:00:00 35.3 8 Sur 28 Sur 0 -- -- 24
2019-08-29 15:00:00 34.8 7 Sudeste 21 Sur 0 -- -- 25
2019-08-29 14:00:00 34 13 Sudoeste 24 Sudoeste 0 -- -- 25
2019-08-29 13:00:00 33.4 8 Sur 18 Sudoeste 0 -- -- 25
2019-08-29 12:00:00 31.5 5 Sur 12 Oeste 0 -- -- 28
2019-08-29 11:00:00 28.7 6 Noroeste 9 Noroeste 0 -- -- 34
2019-08-29 10:00:00 26.2 3 Sudeste 14 Sudeste 0 -- -- 37
2019-08-29 09:00:00 22.6 10 Este 15 Este 0 -- -- 45
2019-08-29 08:00:00 20.5 10 Este 13 Este 0 -- -- 50
2019-08-29 07:00:00 19.5 5 Este 8 Sudeste 0 -- -- 53
2019-08-29 06:00:00 20.8 6 Sudeste 13 Sudeste 0 -- -- 49
2019-08-29 05:00:00 21.5 9 Sudeste 13 Sudeste 0 -- -- 48
2019-08-29 04:00:00 22.1 4 Este 9 Sudeste 0 -- -- 46
2019-08-29 03:00:00 23.3 3 Sudoeste 5 Noroeste 0 -- -- 42
2019-08-29 02:00:00 24.8 2 Oeste 9 Sudeste 0 -- -- 36
2019-08-29 01:00:00 25.7 5 Sudeste 10 Sudeste 0 -- -- 36
2019-08-29 00:00:00 25.8 6 Sudeste 10 Sur 0 -- -- 36
2019-08-28 23:00:00 26.7 7 Sur 15 Sur 0 -- -- 34
2019-08-28 22:00:00 27.2 4 Oeste 8 Sudoeste 0 -- -- 36
2019-08-28 21:00:00 28.8 7 Sudoeste 14 Sudoeste 0 -- -- 34
2019-08-28 20:00:00 31.4 5 Sudoeste 18 Sudoeste 0 -- -- 30
2019-08-28 19:00:00 32.7 7 Sudeste 25 Sudoeste 0 -- -- 28
2019-08-28 18:00:00 33.4 8 Oeste 21 Sudoeste 0 -- -- 28
2019-08-28 17:00:00 33.6 6 Oeste 21 Noroeste 0 -- -- 27
2019-08-28 16:00:00 32.5 8 Sudeste 27 Sur 0 -- -- 29
2019-08-28 15:00:00 31.7 9 Sur 23 Sur 0 -- -- 30
2019-08-28 14:00:00 31.7 7 Sudoeste 19 Sudoeste 0 -- -- 30
2019-08-28 13:00:00 30.6 5 Sudoeste 17 Sudoeste 0 -- -- 33
2019-08-28 12:00:00 28.6 6 Oeste 13 Sudoeste 0 -- -- 38
2019-08-28 11:00:00 26.3 6 Sur 10 Sudeste 0 -- -- 41
2019-08-28 10:00:00 24.4 3 Sudeste 14 Sudeste 0 -- -- 44
2019-08-28 09:00:00 22 10 Este 17 Este 0 -- -- 49
2019-08-28 08:00:00 19.3 10 Este 17 Este 0 -- -- 58
2019-08-28 07:00:00 19.2 8 Sudeste 15 Este 0 -- -- 59
2019-08-28 06:00:00 19.2 9 Este 16 Sudeste 0 -- -- 60
2019-08-28 05:00:00 19.9 9 Sudeste 14 Sudeste 0 -- -- 57
2019-08-28 04:00:00 19.5 8 Este 12 Este 0 -- -- 57
2019-08-28 03:00:00 19.5 8 Este 15 Sudoeste 0 -- -- 59
2019-08-28 02:00:00 22.1 10 Este 16 Este 0 -- -- 49
2019-08-28 01:00:00 22.6 9 Este 14 Este 0 -- -- 48
2019-08-28 00:00:00 24.1 6 Noroeste 8 Noroeste 0 -- -- 40
2019-08-27 23:00:00 24.3 4 Noroeste 10 Noroeste 0 -- -- 42
2019-08-27 22:00:00 24.5 5 Oeste 8 Oeste 0 -- -- 42
2019-08-27 21:00:00 26.1 4 Sudoeste 12 Oeste 0 -- -- 38
2019-08-27 20:00:00 28.7 10 Sudoeste 18 Sudoeste 0 -- -- 32
2019-08-27 19:00:00 29.8 11 Sudoeste 22 Sudoeste 0 -- -- 30
2019-08-27 18:00:00 29.6 6 Sur 21 Sudoeste 0 -- -- 33
2019-08-27 17:00:00 29.5 8 Noroeste 21 Sudoeste 0 -- -- 35
2019-08-27 16:00:00 29.5 10 Sudoeste 24 Sudoeste 0 -- -- 36
2019-08-27 15:00:00 27.3 5 Oeste 21 Sudoeste 0 -- -- 40
2019-08-27 14:00:00 28.3 9 Sudoeste 22 Sudoeste 0 -- -- 39
2019-08-27 13:00:00 26.9 7 Sudeste 16 Oeste 0 -- -- 43
2019-08-27 12:00:00 24.7 6 Sur 14 Sudoeste 0 -- -- 48
2019-08-27 11:00:00 22.9 4 Sur 11 Sudoeste 0 -- -- 52
2019-08-27 10:00:00 21 4 Sur 10 Nordeste 0 -- -- 63
2019-08-27 09:00:00 18.9 7 Nordeste 13 Nordeste 0 -- -- 65
2019-08-27 08:00:00 15.6 11 Este 13 Este 0 -- -- 78
2019-08-27 07:00:00 15.7 4 Nordeste 8 Nordeste 0 -- -- 76
2019-08-27 06:00:00 16.4 6 Este 10 Nordeste 0 -- -- 73
2019-08-27 05:00:00 16.7 10 Este 15 Este 0 -- -- 74
2019-08-27 04:00:00 17.8 10 Este 18 Este 0 -- -- 70
2019-08-27 03:00:00 17.2 8 Este 13 Sudeste 0 -- -- 75
2019-08-27 02:00:00 17.3 11 Sudeste 17 Este 0 -- -- 76
2019-08-27 01:00:00 17.7 8 Sudeste 17 Nordeste 0 -- -- 73
2019-08-27 00:00:00 17.7 12 Nordeste 17 Nordeste 0 -- -- 70
2019-08-26 23:00:00 18.4 7 Este 13 Sudeste 0 -- -- 69
2019-08-26 22:00:00 18.2 8 Sudeste 22 Sudeste 0 -- -- 70
2019-08-26 21:00:00 18.7 10 Sudeste 29 Sudeste 0 -- -- 68
2019-08-26 20:00:00 20.5 16 Sur 44 Sur 0 -- -- 59
2019-08-26 19:00:00 24.4 15 Norte 25 Nordeste 0 -- -- 48
2019-08-26 18:00:00 26 13 Nordeste 24 Nordeste 0 -- -- 45
2019-08-26 17:00:00 27.2 5 Noroeste 22 Sudoeste 0 -- -- 39
2019-08-26 16:00:00 29.2 14 Sudoeste 29 Sudoeste 0 -- -- 36
2019-08-26 15:00:00 27.5 6 Oeste 23 Sudoeste 0 -- -- 41
2019-08-26 14:00:00 27.5 4 Sudoeste 19 Nordeste 0 -- -- 43
2019-08-26 13:00:00 24 6 Norte 23 Noroeste 0 -- -- 57
2019-08-26 12:00:00 21.4 12 Norte 24 Sudoeste 0 -- -- 66
2019-08-26 11:00:00 22.3 12 Oeste 23 Oeste 0 -- -- 65
2019-08-26 10:00:00 21.5 9 Sur 14 Sur 0 -- -- 61
2019-08-26 09:00:00 20.9 6 Sudeste 15 Nordeste 0 -- -- 65
2019-08-26 08:00:00 19.3 12 Este 22 Nordeste 0 -- -- 69
2019-08-26 07:00:00 19.5 17 Este 37 Nordeste 0 -- -- 66
2019-08-26 06:00:00 19.9 30 Nordeste 43 Nordeste 0 -- -- 66
2019-08-26 05:00:00 21.2 28 Nordeste 42 Nordeste 0 -- -- 61
2019-08-26 04:00:00 22.3 27 Nordeste 43 Nordeste 0 -- -- 54
2019-08-26 03:00:00 21.9 22 Este 39 Nordeste 0 -- -- 57
2019-08-26 02:00:00 21.4 32 Nordeste 45 Nordeste 0 -- -- 61
2019-08-26 01:00:00 21.1 23 Nordeste 30 Nordeste 0 -- -- 68
2019-08-26 00:00:00 20.8 14 Nordeste 26 Nordeste 2.2 -- -- 74
2019-08-25 23:00:00 24.8 16 Sudeste 34 Este 0.8 -- -- 53
2019-08-25 22:00:00 28.3 9 Oeste 22 Oeste 0 -- -- 33
2019-08-25 21:00:00 29.9 6 Sudoeste 26 Sudoeste 0 -- -- 29
2019-08-25 20:00:00 31.9 15 Sur 31 Sudoeste 0 -- -- 26
2019-08-25 19:00:00 33.7 21 Sudoeste 36 Sur 0 -- -- 24
2019-08-25 18:00:00 34 20 Sur 32 Sudoeste 0 -- -- 24
2019-08-25 17:00:00 34.1 18 Sur 39 Sur 0 -- -- 24
2019-08-25 16:00:00 33.9 13 Sur 27 Sudoeste 0 -- -- 25
2019-08-25 15:00:00 33.5 14 Sudoeste 22 Sur 0 -- -- 26
2019-08-25 14:00:00 32 9 Sur 23 Sudoeste 0 -- -- 28
2019-08-25 13:00:00 31.5 9 Sudeste 20 Sur 0 -- -- 28
2019-08-25 12:00:00 29.8 7 Sudeste 14 Sudoeste 0 -- -- 31
2019-08-25 11:00:00 27.2 7 Sur 17 Sudeste 0 -- -- 32
2019-08-25 10:00:00 23.8 10 Sudeste 19 Este 0 -- -- 39
2019-08-25 09:00:00 23 5 Sur 13 Este 0 -- -- 38
2019-08-25 08:00:00 23.5 8 Sudeste 14 Sudeste 0 -- -- 37
2019-08-25 07:00:00 23.8 8 Este 12 Este 0 -- -- 32
2019-08-25 06:00:00 23.2 10 Este 15 Sudeste 0 -- -- 32
2019-08-25 05:00:00 24.7 6 Sudeste 10 Sudeste 0 -- -- 32
2019-08-25 04:00:00 25.3 9 Sudeste 17 Sudeste 0 -- -- 29
2019-08-25 03:00:00 25 9 Sudeste 32 Sudeste 0 -- -- 29
2019-08-25 02:00:00 25.9 5 Este 15 Este 0 -- -- 27
2019-08-25 01:00:00 27.1 5 Sudeste 8 Sudeste 0 -- -- 25
2019-08-25 00:00:00 28.3 4 Sudeste 7 Sudeste 0 -- -- 23
2019-08-24 23:00:00 29.4 5 Sudeste 12 Sudeste 0 -- -- 22
2019-08-24 22:00:00 29.3 7 Sudeste 17 Este 0 -- -- 22
2019-08-24 21:00:00 30.6 9 Nordeste 19 Nordeste 0 -- -- 21
2019-08-24 20:00:00 33.8 11 Nordeste 25 Nordeste 0 -- -- 18
2019-08-24 19:00:00 34.9 14 Nordeste 30 Sudeste 0 -- -- 18
2019-08-24 18:00:00 35.9 12 Nordeste 36 Nordeste 0 -- -- 17
2019-08-24 17:00:00 36.3 10 Norte 24 Nordeste 0 -- -- 17
2019-08-24 16:00:00 35.9 11 Norte 29 Norte 0 -- -- 18
2019-08-24 15:00:00 35.6 14 Nordeste 36 Oeste 0 -- -- 18
2019-08-24 14:00:00 34.9 10 Nordeste 33 Nordeste 0 -- -- 19
2019-08-24 13:00:00 33.5 12 Nordeste 27 Nordeste 0 -- -- 20
2019-08-24 12:00:00 32.1 12 Nordeste 26 Nordeste 0 -- -- 22
2019-08-24 11:00:00 30.3 16 Nordeste 21 Nordeste 0 -- -- 23
2019-08-24 10:00:00 29.5 16 Nordeste 22 Nordeste 0 -- -- 23
2019-08-24 09:00:00 26.2 14 Nordeste 17 Nordeste 0 -- -- 25
2019-08-24 08:00:00 23.1 15 Nordeste 18 Nordeste 0 -- -- 28
2019-08-24 07:00:00 24.1 13 Nordeste 22 Este 0 -- -- 26
2019-08-24 06:00:00 23.6 18 Este 19 Este 0 -- -- 25
2019-08-24 05:00:00 24.9 11 Este 16 Este 0 -- -- 25
2019-08-24 04:00:00 26.7 9 Este 17 Este 0 -- -- 23
2019-08-24 03:00:00 27.1 10 Este 17 Este 0 -- -- 24
2019-08-24 02:00:00 26.6 9 Este 20 Este 0 -- -- 27
2019-08-24 01:00:00 25.1 14 Este 20 Este 0 -- -- 28
2019-08-24 00:00:00 26.8 16 Nordeste 17 Nordeste 0 -- -- 25
2019-08-23 23:00:00 26.9 13 Nordeste 15 Nordeste 0 -- -- 25
2019-08-23 22:00:00 27.8 9 Nordeste 14 Norte 0 -- -- 24
2019-08-23 21:00:00 30.3 10 Norte 19 Norte 0 -- -- 21
2019-08-23 20:00:00 33.4 10 Norte 26 Nordeste 0 -- -- 18
2019-08-23 19:00:00 34.5 9 Norte 23 Noroeste 0 -- -- 16
2019-08-23 18:00:00 34.8 9 Nordeste 26 Nordeste 0 -- -- 18
2019-08-23 17:00:00 34.7 12 Norte 35 Noroeste 0 -- -- 19
2019-08-23 16:00:00 34.5 8 Norte 26 Nordeste 0 -- -- 20
2019-08-23 15:00:00 34 13 Norte 33 Nordeste 0 -- -- 23
2019-08-23 14:00:00 33 17 Nordeste 32 Nordeste 0 -- -- 26
2019-08-23 13:00:00 31.5 18 Nordeste 31 Nordeste 0 -- -- 29
2019-08-23 12:00:00 30.1 14 Nordeste 24 Nordeste 0 -- -- 33
2019-08-23 11:00:00 28.8 13 Nordeste 23 Este 0 -- -- 36
2019-08-23 10:00:00 26.7 19 Este 31 Nordeste 0 -- -- 37
2019-08-23 09:00:00 24.6 21 Nordeste 30 Nordeste 0 -- -- 37
2019-08-23 08:00:00 22.5 19 Nordeste 24 Nordeste 0 -- -- 37
2019-08-23 07:00:00 22.9 21 Nordeste 25 Nordeste 0 -- -- 34
2019-08-23 06:00:00 22.3 14 Nordeste 18 Nordeste 0 -- -- 32
2019-08-23 05:00:00 24.3 10 Este 15 Este 0 -- -- 31
2019-08-23 04:00:00 24.4 8 Este 16 Este 0 -- -- 28
2019-08-23 03:00:00 24.6 14 Nordeste 19 Nordeste 0 -- -- 26
2019-08-23 02:00:00 25.6 18 Nordeste 22 Nordeste 0 -- -- 24
2019-08-23 01:00:00 27.4 19 Este 25 Este 0 -- -- 22
2019-08-23 00:00:00 27.2 18 Nordeste 24 Nordeste 0 -- -- 22